Anaconda, MT

2:53 AM MST on November 29, 2014 (GMT -0700)
goosetown 2 | Change Station
CLOSE
Current Station
Personal Weather Station
Location: Anaconda, MT
Elevation: 5240 ft
Nearby Weather Stations
Active Advisory: Winter Weather Advisory Active Notice: Public Information Statement

Elev 5240 ft 46.13 °N, 112.94 °W | Updated 1 minute ago

Ice Pellets
Ice Pellets
39.1 °F
Feels Like 31 °F
N
14.0
Wind Variable Wind from WSW
Gusts 14.0 mph

Today
High -- | Low -- °F
--% Chance of Precip.
Yesterday
High -- | Low -- °F
Precip. -- in
7:51 AM 4:49 PM
Waxing Crescent, 50% visible
Pressure 29.37 in
Visibility 10.0 miles
Clouds Overcast 4000 ft
Windchill 31 °F
Dew Point 32 °F
Humidity 75%
Rainfall 0.00 in
Snow Depth Not available.
UV 0 out of 12
Pollen .10 out of 12
Air Quality Not available.
Flu Activity Not available.
METAR KBTM 290853Z AUTO 23007G15KT 10SM -RA OVC040 04/M01 A2940 RMK AO2 RAB42 SLP943 P0000 60000 T00441011 56017

More Conditions Fewer Conditions

Pressure 29.37 in
Visibility 10.0 miles
Clouds Overcast 4000 ft
Windchill 31 °F
Dew Point 32 °F
Humidity 75%
Rainfall 0.00 in
Snow Depth Not available.
UV 0 out of 12
Pollen .10 out of 12
Air Quality Not available.
Flu Activity Not available.
METAR KBTM 290853Z AUTO 23007G15KT 10SM -RA OVC040 04/M01 A2940 RMK AO2 RAB42 SLP943 P0000 60000 T00441011 56017

More Conditions Fewer Conditions

10-Day Weather Forecast

Almanac

Astronomy

Nov. 29, 2014 Rise Set
Actual Time
Civil Twilight
Nautical Twilight
Astronomical Twilight
Moon
Length of Visible Light
Length of Day
Tomorrow will be .
, % of the Moon is Illuminated

Today's Extremes

State Highs State Lows

Community

WunderPhotos

Upload Photos

1,774,442 photos uploaded!

WunderBlogs® & News

Nearby

Air Quality

  Air Quality AQ Index Pollutant
Not available.

Snow Depth

Station Depth Elevation

Earthquake Activity

City Distance Mag. Time & Date
Minimum magnitude displayed is 2.5.

Coastal Water Temperatures

Place Temperature

Nearby Weather Stations